Time;durP1;ratioP1;P1;durP2;ratioP2;P2;SDS_P1;SDS_P2;PMS_P1;PMS_P2;Temp;Humidity;BMP_temperature;BMP_pressure;BME280_temperature;BME280_humidity;BME280_pressure;Samples;Min_cycle;Max_cycle;Signal;HPM_P1;HPM_P2
2023/12/29 00:01:13;;;;;;;;;;;4.70;99.90;;;;;;21000064;28;19917;-79
2023/12/29 00:11:18;;;;;;;;;;;4.80;99.90;;;;;;21007721;28;19908;-81
2023/12/29 00:21:18;;;;;;;;;;;4.60;99.90;;;;;;21016398;28;19916;-82
2023/12/29 00:31:19;;;;;;;;;;;4.70;99.90;;;;;;21002603;28;19988;-82
2023/12/29 00:41:20;;;;;;;;;;;4.50;99.90;;;;;;20975096;28;19912;-80
2023/12/29 00:51:20;;;;;;;;;;;4.50;99.90;;;;;;20998926;28;19912;-82
2023/12/29 01:01:21;;;;;;;;;;;4.60;99.90;;;;;;20988606;28;19934;-81
2023/12/29 01:11:21;;;;;;;;;;;4.60;99.90;;;;;;20997666;28;19908;-82
2023/12/29 01:21:22;;;;;;;;;;;4.60;99.90;;;;;;21030186;28;19923;-81
2023/12/29 01:31:24;;;;;;;;;;;4.40;99.90;;;;;;21015423;28;19912;-80
2023/12/29 01:41:25;;;;;;;;;;;4.40;99.90;;;;;;20997466;28;19912;-81
2023/12/29 01:51:27;;;;;;;;;;;4.30;99.90;;;;;;21024963;28;19958;-81
2023/12/29 02:01:27;;;;;;;;;;;4.40;99.90;;;;;;21042147;28;19919;-81
2023/12/29 02:11:28;;;;;;;;;;;4.50;99.90;;;;;;21019099;28;20054;-77
2023/12/29 02:21:29;;;;;;;;;;;4.50;99.90;;;;;;21028732;28;19980;-82
2023/12/29 02:31:31;;;;;;;;;;;4.60;99.90;;;;;;21027335;28;19915;-82
2023/12/29 02:41:32;;;;;;;;;;;4.40;99.90;;;;;;21027100;28;20008;-82
2023/12/29 02:51:33;;;;;;;;;;;4.40;99.90;;;;;;21027380;28;20405;-79
2023/12/29 03:01:33;;;;;;;;;;;4.50;99.90;;;;;;21050130;28;19971;-81
2023/12/29 03:11:34;;;;;;;;;;;4.60;99.90;;;;;;21028993;28;20384;-79
2023/12/29 03:21:35;;;;;;;;;;;4.60;99.90;;;;;;21016842;28;19971;-81
2023/12/29 03:31:36;;;;;;;;;;;4.60;99.90;;;;;;21023376;28;19939;-81
2023/12/29 03:41:36;;;;;;;;;;;4.60;99.90;;;;;;21004798;28;19912;-81
2023/12/29 03:51:37;;;;;;;;;;;4.60;99.90;;;;;;21007489;28;19909;-81
2023/12/29 04:01:38;;;;;;;;;;;4.70;99.90;;;;;;21001694;28;19943;-81
2023/12/29 04:11:38;;;;;;;;;;;4.80;99.90;;;;;;21038529;28;19999;-81
2023/12/29 04:21:39;;;;;;;;;;;4.70;99.90;;;;;;21009623;28;19955;-81
2023/12/29 04:31:39;;;;;;;;;;;4.70;99.90;;;;;;21009876;28;19909;-81
2023/12/29 04:41:40;;;;;;;;;;;4.70;99.90;;;;;;21006899;28;20305;-82
2023/12/29 04:51:41;;;;;;;;;;;4.80;99.90;;;;;;21017327;28;19912;-79
2023/12/29 05:01:41;;;;;;;;;;;4.90;99.90;;;;;;21012152;28;19913;-80
2023/12/29 05:11:42;;;;;;;;;;;4.90;99.90;;;;;;21028470;28;19909;-81
2023/12/29 05:21:43;;;;;;;;;;;4.90;99.90;;;;;;21021438;28;20332;-82
2023/12/29 05:31:44;;;;;;;;;;;4.90;99.90;;;;;;21004992;28;19913;-82
2023/12/29 05:41:44;;;;;;;;;;;5.00;99.90;;;;;;21027053;28;19923;-82
2023/12/29 05:51:45;;;;;;;;;;;5.00;99.90;;;;;;21031630;28;20285;-81
2023/12/29 06:01:46;;;;;;;;;;;5.10;99.90;;;;;;21019342;28;19913;-81
2023/12/29 06:11:46;;;;;;;;;;;5.10;99.90;;;;;;21036522;28;19917;-81
2023/12/29 06:21:47;;;;;;;;;;;5.10;99.90;;;;;;21034940;28;19979;-81
2023/12/29 06:31:48;;;;;;;;;;;5.10;99.90;;;;;;20987958;28;19915;-81
2023/12/29 06:41:49;;;;;;;;;;;5.10;99.90;;;;;;21004333;28;19952;-81
2023/12/29 06:51:51;;;;;;;;;;;5.10;99.90;;;;;;21031768;28;19919;-81
2023/12/29 07:01:51;;;;;;;;;;;5.10;99.90;;;;;;21023798;28;19912;-80
2023/12/29 07:11:52;;;;;;;;;;;5.10;99.90;;;;;;21019433;28;19908;-82
2023/12/29 07:21:53;;;;;;;;;;;5.20;99.90;;;;;;21030863;28;19923;-81
2023/12/29 07:31:53;;;;;;;;;;;5.20;99.90;;;;;;21029240;28;20403;-82
2023/12/29 07:41:54;;;;;;;;;;;5.10;99.90;;;;;;21037936;28;19912;-82
2023/12/29 07:51:59;;;;;;;;;;;5.10;99.90;;;;;;21017945;28;19908;-81
2023/12/29 08:01:59;;;;;;;;;;;5.20;99.90;;;;;;21037940;28;19912;-82
2023/12/29 08:12:00;;;;;;;;;;;5.30;99.90;;;;;;21011466;28;19915;-80
2023/12/29 08:22:01;;;;;;;;;;;5.40;99.90;;;;;;21025024;28;20407;-81
2023/12/29 08:32:02;;;;;;;;;;;5.40;99.90;;;;;;20973426;28;19918;-80
2023/12/29 08:42:02;;;;;;;;;;;6.10;99.90;;;;;;21010902;28;19912;-81
2023/12/29 08:52:04;;;;;;;;;;;6.00;99.90;;;;;;21005486;28;19914;-81
2023/12/29 09:02:05;;;;;;;;;;;5.70;99.90;;;;;;21008306;28;19917;-82
2023/12/29 09:12:05;;;;;;;;;;;5.80;99.90;;;;;;21029108;28;19915;-82
2023/12/29 09:22:06;;;;;;;;;;;6.00;99.90;;;;;;21018760;28;19919;-82
2023/12/29 09:32:07;;;;;;;;;;;6.20;99.90;;;;;;21047068;28;20288;-80
2023/12/29 09:42:11;;;;;;;;;;;6.70;99.90;;;;;;21018866;28;20021;-83
2023/12/29 09:52:12;;;;;;;;;;;7.10;99.90;;;;;;20991022;28;20388;-79
2023/12/29 10:02:16;;;;;;;;;;;7.50;99.90;;;;;;21010494;28;20434;-82
2023/12/29 10:12:17;;;;;;;;;;;8.00;99.90;;;;;;21037117;28;19915;-82
2023/12/29 10:22:25;;;;;;;;;;;7.70;99.90;;;;;;21028745;28;19972;-79
2023/12/29 10:32:28;;;;;;;;;;;7.40;99.90;;;;;;21015293;28;19920;-81
2023/12/29 10:42:29;;;;;;;;;;;7.40;99.90;;;;;;21016460;28;20355;-80
2023/12/29 10:52:31;;;;;;;;;;;7.50;99.90;;;;;;21022994;28;19908;-80
2023/12/29 11:02:33;;;;;;;;;;;7.50;99.90;;;;;;21035346;28;19913;-82
2023/12/29 11:12:35;;;;;;;;;;;7.50;99.90;;;;;;21044657;28;19909;-83
2023/12/29 11:22:35;;;;;;;;;;;7.60;99.90;;;;;;20948545;28;20015;-82
2023/12/29 11:32:55;;;;;;;;;;;7.80;99.90;;;;;;20947035;28;19908;-82
2023/12/29 11:43:00;;;;;;;;;;;7.70;99.90;;;;;;20962802;28;19939;-83
2023/12/29 11:53:01;;;;;;;;;;;7.80;99.90;;;;;;20946007;28;19913;-82
2023/12/29 12:03:12;;;;;;;;;;;7.80;99.90;;;;;;20957206;28;19913;-82
2023/12/29 12:13:33;;;;;;;;;;;7.70;99.90;;;;;;20960309;28;19976;-83
2023/12/29 12:23:35;;;;;;;;;;;7.80;99.90;;;;;;21010638;28;19963;-81
2023/12/29 12:33:35;;;;;;;;;;;8.10;99.90;;;;;;21009481;28;19938;-83
2023/12/29 12:43:39;;;;;;;;;;;8.10;99.90;;;;;;21008506;28;19916;-83
2023/12/29 12:53:47;;;;;;;;;;;8.20;99.90;;;;;;21018094;28;19915;-80
2023/12/29 13:03:48;;;;;;;;;;;8.40;99.90;;;;;;21008126;28;19912;-81
2023/12/29 13:13:49;;;;;;;;;;;8.50;99.90;;;;;;21037831;28;19916;-84
2023/12/29 13:23:50;;;;;;;;;;;8.60;99.90;;;;;;20887013;28;19991;-83
2023/12/29 13:33:57;;;;;;;;;;;8.70;99.90;;;;;;20888903;28;19917;-83
2023/12/29 13:43:59;;;;;;;;;;;8.70;99.90;;;;;;20912630;28;19913;-83
2023/12/29 13:54:03;;;;;;;;;;;8.90;99.90;;;;;;20900078;28;19909;-82
2023/12/29 14:04:08;;;;;;;;;;;9.00;99.90;;;;;;20924938;28;19919;-81
2023/12/29 14:14:08;;;;;;;;;;;9.10;99.90;;;;;;20914051;28;19912;-78
2023/12/29 14:24:13;;;;;;;;;;;9.10;99.90;;;;;;21007031;28;20324;-83
2023/12/29 14:34:14;;;;;;;;;;;9.00;99.90;;;;;;21003982;28;19908;-82
2023/12/29 14:44:15;;;;;;;;;;;9.10;99.90;;;;;;21034898;28;19916;-79
2023/12/29 14:54:15;;;;;;;;;;;9.00;99.90;;;;;;21006971;28;19916;-82
2023/12/29 15:04:16;;;;;;;;;;;8.80;99.90;;;;;;20982793;28;19912;-83
2023/12/29 15:14:17;;;;;;;;;;;8.70;99.90;;;;;;20999285;28;19943;-81
2023/12/29 15:24:17;;;;;;;;;;;8.70;99.90;;;;;;20916843;28;20385;-83
2023/12/29 15:34:18;;;;;;;;;;;8.70;99.90;;;;;;20902195;28;19932;-82
2023/12/29 15:44:19;;;;;;;;;;;8.40;99.90;;;;;;20924112;28;19919;-82
2023/12/29 15:54:20;;;;;;;;;;;8.30;99.90;;;;;;20891127;28;19931;-83
2023/12/29 16:04:21;;;;;;;;;;;8.30;99.90;;;;;;20902906;28;19980;-80
2023/12/29 16:14:21;;;;;;;;;;;8.40;99.90;;;;;;20932421;28;19912;-81
2023/12/29 16:24:22;;;;;;;;;;;8.20;99.90;;;;;;21035595;28;20396;-83
2023/12/29 16:34:23;;;;;;;;;;;8.30;99.90;;;;;;20996935;28;19908;-83
2023/12/29 16:44:23;;;;;;;;;;;8.30;99.90;;;;;;21034632;28;19919;-85
2023/12/29 16:54:24;;;;;;;;;;;8.30;99.90;;;;;;21001366;28;20268;-85
2023/12/29 17:04:25;;;;;;;;;;;8.10;99.90;;;;;;21012384;28;19916;-83
2023/12/29 17:14:26;;;;;;;;;;;8.10;99.90;;;;;;21002196;28;19919;-82
2023/12/29 17:24:27;;;;;;;;;;;7.90;99.90;;;;;;21016578;28;20262;-84
2023/12/29 17:34:28;;;;;;;;;;;8.00;99.90;;;;;;21003724;28;20265;-81
2023/12/29 17:44:29;;;;;;;;;;;7.90;99.90;;;;;;20979507;28;19912;-82
2023/12/29 17:54:30;;;;;;;;;;;7.90;99.90;;;;;;20986812;28;19915;-82
2023/12/29 18:04:30;;;;;;;;;;;8.20;99.90;;;;;;20995082;28;19912;-81
2023/12/29 18:14:37;;;;;;;;;;;8.60;99.90;;;;;;20966728;28;19912;-82
2023/12/29 18:24:39;;;;;;;;;;;8.70;99.90;;;;;;20903340;28;19951;-81
2023/12/29 18:34:40;;;;;;;;;;;8.90;99.90;;;;;;20903815;28;19909;-83
2023/12/29 18:44:40;;;;;;;;;;;8.70;99.90;;;;;;20887014;28;20309;-82
2023/12/29 18:54:41;;;;;;;;;;;8.60;99.90;;;;;;20867944;28;20370;-82
2023/12/29 19:04:43;;;;;;;;;;;8.50;99.90;;;;;;20873723;28;19920;-82
2023/12/29 19:14:52;;;;;;;;;;;8.60;99.90;;;;;;20911094;28;19919;-83
2023/12/29 19:24:53;;;;;;;;;;;8.70;99.90;;;;;;21007774;28;19916;-81
2023/12/29 19:34:53;;;;;;;;;;;8.70;99.90;;;;;;20990932;28;19935;-82
2023/12/29 19:44:54;;;;;;;;;;;8.70;99.90;;;;;;20993348;28;19912;-81
2023/12/29 19:54:55;;;;;;;;;;;8.80;99.90;;;;;;21006781;28;19919;-80
2023/12/29 20:04:56;;;;;;;;;;;8.70;99.90;;;;;;20984076;28;19912;-81
2023/12/29 20:14:56;;;;;;;;;;;8.70;99.90;;;;;;20998106;28;19916;-80
2023/12/29 20:24:57;;;;;;;;;;;8.80;99.90;;;;;;21029970;28;20553;-83
2023/12/29 20:34:58;;;;;;;;;;;8.80;99.90;;;;;;21046695;28;19908;-81
2023/12/29 20:44:59;;;;;;;;;;;8.80;99.90;;;;;;21027931;28;20015;-81
2023/12/29 20:55:00;;;;;;;;;;;8.80;99.90;;;;;;21021298;28;19908;-82
2023/12/29 21:05:03;;;;;;;;;;;8.80;99.90;;;;;;21011678;28;19939;-83
2023/12/29 21:15:04;;;;;;;;;;;8.80;99.90;;;;;;21006361;28;19935;-84
2023/12/29 21:25:05;;;;;;;;;;;8.80;99.90;;;;;;20959064;28;19917;-82
2023/12/29 21:35:06;;;;;;;;;;;8.90;99.90;;;;;;20947788;28;20328;-83
2023/12/29 21:45:09;;;;;;;;;;;8.90;99.90;;;;;;20926941;28;19935;-82
2023/12/29 21:55:10;;;;;;;;;;;8.80;99.90;;;;;;20933600;28;19909;-83
2023/12/29 22:05:11;;;;;;;;;;;8.90;99.90;;;;;;20931710;28;20007;-83
2023/12/29 22:15:11;;;;;;;;;;;9.10;99.90;;;;;;20938350;28;19912;-83
2023/12/29 22:25:12;;;;;;;;;;;9.30;99.90;;;;;;21016871;28;20315;-83
2023/12/29 22:35:13;;;;;;;;;;;9.40;99.90;;;;;;20990325;28;19915;-83
2023/12/29 22:45:14;;;;;;;;;;;9.40;99.90;;;;;;21017345;28;19920;-83
2023/12/29 22:55:14;;;;;;;;;;;9.30;99.90;;;;;;21031770;28;20269;-80
2023/12/29 23:05:15;;;;;;;;;;;9.30;99.90;;;;;;21015456;28;20011;-83
2023/12/29 23:15:16;;;;;;;;;;;9.20;99.90;;;;;;20999545;28;20290;-83
2023/12/29 23:25:17;;;;;;;;;;;9.00;99.90;;;;;;20937136;28;19948;-84
2023/12/29 23:35:18;;;;;;;;;;;8.80;99.90;;;;;;20941916;28;19958;-82
2023/12/29 23:45:18;;;;;;;;;;;8.60;99.90;;;;;;20938493;28;20442;-83
2023/12/29 23:55:22;;;;;;;;;;;8.50;99.90;;;;;;20940222;28;20421;-82
